Time;durP1;ratioP1;P1;durP2;ratioP2;P2;SDS_P1;SDS_P2;PMS_P1;PMS_P2;Temp;Humidity;BMP_temperature;BMP_pressure;BME280_temperature;BME280_humidity;BME280_pressure;Samples;Min_cycle;Max_cycle;Signal;HPM_P1;HPM_P2
2021/07/30 00:00:04;;;;;;;17.87;12.27;;;;;;;22.77;70.59;98663.00;3367956;29;20085;-76
2021/07/30 00:01:46;;;;;;;20.10;15.93;;;;;;;22.76;70.94;98666.84;3369312;29;20049;-77
2021/07/30 00:03:27;;;;;;;22.63;14.37;;;;;;;22.72;70.87;98657.66;3371764;29;20103;-77
2021/07/30 00:05:08;;;;;;;20.83;13.70;;;;;;;22.77;70.86;98671.16;3358360;29;20049;-77
2021/07/30 00:06:49;;;;;;;18.15;14.40;;;;;;;22.76;71.00;98669.56;3359407;29;20049;-78
2021/07/30 00:08:30;;;;;;;20.20;14.18;;;;;;;22.77;70.94;98663.00;3372871;29;20045;-75
2021/07/30 00:10:11;;;;;;;18.10;14.20;;;;;;;22.73;70.92;98651.16;3374468;29;20052;-77
2021/07/30 00:11:52;;;;;;;21.45;13.68;;;;;;;22.77;70.64;98657.56;3374523;29;20127;-76
2021/07/30 00:13:33;;;;;;;21.48;14.88;;;;;;;22.80;70.90;98659.72;3375657;29;20044;-77
2021/07/30 00:15:13;;;;;;;21.27;13.93;;;;;;;22.79;70.91;98658.09;3346413;29;20046;-76
2021/07/30 00:16:54;;;;;;;18.57;14.27;;;;;;;22.78;71.02;98649.13;3367603;29;20051;-76
2021/07/30 00:18:35;;;;;;;23.00;13.27;;;;;;;22.79;71.20;98649.94;3367621;29;20573;-78
2021/07/30 00:20:16;;;;;;;18.77;13.10;;;;;;;22.78;71.32;98653.78;3363215;29;20091;-76
2021/07/30 00:21:58;;;;;;;18.53;12.87;;;;;;;22.76;71.33;98650.53;3363713;29;20049;-76
2021/07/30 00:23:38;;;;;;;18.38;13.27;;;;;;;22.74;71.28;98648.13;3342166;29;20041;-77
2021/07/30 00:25:20;;;;;;;18.07;12.40;;;;;;;22.77;70.96;98657.56;3368752;29;20096;-75
2021/07/30 00:27:00;;;;;;;16.60;11.68;;;;;;;22.77;71.06;98647.53;3356118;29;20041;-76
2021/07/30 00:28:42;;;;;;;15.23;11.52;;;;;;;22.76;71.07;98650.53;3366250;29;20108;-76
2021/07/30 00:30:23;;;;;;;15.43;12.13;;;;;;;22.78;71.32;98651.06;3363108;29;20060;-78
2021/07/30 00:32:06;;;;;;;14.53;11.23;;;;;;;22.78;71.05;98654.56;3348967;29;20060;-78
2021/07/30 00:33:47;;;;;;;16.38;11.52;;;;;;;22.79;71.49;98658.09;3372170;29;20065;-77
2021/07/30 00:35:27;;;;;;;13.03;11.50;;;;;;;22.78;71.51;98659.22;3372433;29;20060;-76
2021/07/30 00:37:13;;;;;;;15.80;11.98;;;;;;;22.79;71.29;98663.53;3375760;29;20051;-76
2021/07/30 00:38:54;;;;;;;18.73;12.63;;;;;;;22.78;71.10;98659.22;3375094;29;20043;-78
2021/07/30 00:40:35;;;;;;;17.30;11.40;;;;;;;22.76;70.96;98650.53;3375493;29;20048;-77
2021/07/30 00:42:16;;;;;;;16.35;11.75;;;;;;;22.75;71.22;98655.19;3375374;29;20100;-77
2021/07/30 00:43:57;;;;;;;14.67;11.63;;;;;;;22.79;71.19;98656.16;3374799;29;20550;-77
2021/07/30 00:45:38;;;;;;;18.67;10.87;;;;;;;22.78;71.10;98665.44;3373742;29;20041;-78
2021/07/30 00:47:19;;;;;;;14.45;10.95;;;;;;;22.78;70.94;98654.56;3371599;29;20048;-78
2021/07/30 00:49:00;;;;;;;15.47;11.13;;;;;;;22.78;71.33;98660.00;3361227;29;20045;-77
2021/07/30 00:50:43;;;;;;;18.33;11.20;;;;;;;22.78;71.41;98660.00;3359587;29;20073;-78
2021/07/30 00:52:25;;;;;;;13.27;10.63;;;;;;;22.72;71.19;98650.34;3373401;29;20161;-78
2021/07/30 00:54:06;;;;;;;13.10;11.43;;;;;;;22.76;71.24;98662.22;3374888;29;20078;-75
2021/07/30 00:55:48;;;;;;;15.40;10.97;;;;;;;22.78;71.55;98659.22;3347541;29;20037;-76
2021/07/30 00:57:28;;;;;;;;;;;;;;;22.82;70.90;98658.31;3370397;29;20124;-76
2021/07/30 00:59:10;;;;;;;22.45;10.63;;;;;;;22.76;71.26;98655.97;3373895;29;19922;-77
2021/07/30 01:00:51;;;;;;;14.15;10.60;;;;;;;22.76;71.49;98659.50;3359507;29;20532;-77
2021/07/30 01:02:32;;;;;;;17.90;11.45;;;;;;;22.76;71.19;98661.41;3358784;29;20049;-79
2021/07/30 01:04:13;;;;;;;17.45;12.10;;;;;;;22.78;71.20;98664.63;3349431;29;20109;-78
2021/07/30 01:05:54;;;;;;;12.50;10.30;;;;;;;22.73;71.39;98651.16;3361353;29;20053;-77
2021/07/30 01:07:35;;;;;;;17.60;10.70;;;;;;;22.78;71.46;98659.22;3371447;29;20515;-77
2021/07/30 01:09:15;;;;;;;16.30;10.00;;;;;;;22.76;71.39;98659.50;3361775;29;20056;-77
2021/07/30 01:10:56;;;;;;;15.53;11.23;;;;;;;22.75;71.21;98655.19;3372978;29;20063;-76
2021/07/30 01:12:38;;;;;;;14.75;10.00;;;;;;;22.74;71.38;98647.31;3367040;29;20045;-77
2021/07/30 01:14:18;;;;;;;15.47;11.30;;;;;;;22.76;71.24;98655.97;3362788;29;20060;-76
2021/07/30 01:15:59;;;;;;;14.73;11.03;;;;;;;22.75;71.25;98648.94;3349071;29;20045;-75
2021/07/30 01:17:40;;;;;;;17.20;10.90;;;;;;;22.73;71.43;98645.72;3368698;29;20048;-77
2021/07/30 01:19:22;;;;;;;13.73;10.77;;;;;;;22.76;71.31;98656.78;3375737;29;20202;-77
2021/07/30 01:21:06;;;;;;;14.52;10.85;;;;;;;22.76;71.14;98654.06;3362488;29;20076;-78
2021/07/30 01:22:52;;;;;;;15.57;10.75;;;;;;;22.76;71.20;98656.78;3369564;29;20051;-78
2021/07/30 01:24:33;;;;;;;18.90;10.82;;;;;;;22.68;71.30;98629.50;3378079;29;20048;-77
2021/07/30 01:26:14;;;;;;;14.63;11.30;;;;;;;22.78;71.16;98654.56;3378100;29;20037;-78
2021/07/30 01:27:56;;;;;;;20.55;10.82;;;;;;;22.78;70.99;98654.56;3362546;29;20048;-77
2021/07/30 01:29:36;;;;;;;15.27;11.63;;;;;;;22.79;70.80;98645.31;3373455;29;20047;-77
2021/07/30 01:31:17;;;;;;;18.60;13.07;;;;;;;22.77;71.25;98644.81;3377398;29;20044;-79
2021/07/30 01:32:58;;;;;;;14.97;12.60;;;;;;;22.80;71.34;98646.94;3378012;29;20036;-76
2021/07/30 01:34:38;;;;;;;16.90;10.73;;;;;;;22.79;71.21;98644.50;3363726;29;20077;-78
2021/07/30 01:36:19;;;;;;;16.77;11.30;;;;;;;22.81;71.18;98648.53;3363958;29;20412;-78
2021/07/30 01:38:00;;;;;;;15.50;10.50;;;;;;;22.78;71.18;98632.03;3360763;29;20497;-78
2021/07/30 01:39:40;;;;;;;17.80;11.27;;;;;;;22.82;70.91;98638.47;3364763;29;20136;-78
2021/07/30 01:41:21;;;;;;;16.57;11.63;;;;;;;22.78;71.01;98638.28;3363368;29;20136;-78
2021/07/30 01:43:02;;;;;;;21.13;12.70;;;;;;;22.77;71.18;98633.13;3364150;29;20123;-78
2021/07/30 01:44:42;;;;;;;18.40;12.43;;;;;;;22.77;71.13;98641.28;3364213;29;20040;-76
2021/07/30 01:46:23;;;;;;;18.30;12.90;;;;;;;22.76;71.30;98639.69;3365072;29;20044;-78
2021/07/30 01:48:04;;;;;;;14.53;11.80;;;;;;;22.78;71.71;98637.47;3355493;29;20158;-77
2021/07/30 01:49:48;;;;;;;15.95;12.32;;;;;;;22.78;71.39;98648.34;3362373;29;20045;-76
2021/07/30 01:51:29;;;;;;;15.35;12.23;;;;;;;22.77;71.54;98644.81;3364956;29;20144;-77
2021/07/30 01:53:09;;;;;;;16.77;11.03;;;;;;;22.80;70.93;98651.56;3364952;29;20386;-77
2021/07/30 01:54:50;;;;;;;19.03;11.73;;;;;;;22.82;70.87;98654.75;3362919;29;20045;-76
2021/07/30 01:56:31;;;;;;;12.27;10.45;;;;;;;22.81;70.65;98653.16;3362358;29;20190;-77
2021/07/30 01:58:12;;;;;;;14.90;11.67;;;;;;;22.81;70.57;98662.13;3365658;29;20056;-78
2021/07/30 01:59:52;;;;;;;16.27;11.10;;;;;;;22.78;70.29;98651.06;3366254;29;20405;-76
2021/07/30 02:01:33;;;;;;;14.27;11.07;;;;;;;22.82;69.91;98654.75;3363850;29;20072;-76
2021/07/30 02:03:14;;;;;;;21.70;11.47;;;;;;;22.83;70.07;98656.41;3364639;29;20069;-78
2021/07/30 02:04:54;;;;;;;14.50;11.20;;;;;;;22.83;70.19;98656.41;3364116;29;20045;-78
2021/07/30 02:06:35;;;;;;;24.53;11.60;;;;;;;22.84;69.91;98655.28;3362547;29;20987;-77
2021/07/30 02:08:17;;;;;;;18.50;11.20;;;;;;;22.83;70.08;98651.75;3359452;29;20045;-77
2021/07/30 02:09:58;;;;;;;15.57;10.87;;;;;;;22.83;70.13;98646.31;3362559;29;20072;-78
2021/07/30 02:11:43;;;;;;;17.00;11.50;;;;;;;22.85;70.25;98643.31;3361161;29;20085;-76
2021/07/30 02:15:23;;;;;;;19.98;11.65;;;;;;;22.87;70.65;98646.50;3351723;29;20524;-76
2021/07/30 02:17:04;;;;;;;17.23;12.17;;;;;;;22.87;70.57;98646.50;3354779;29;20048;-77
2021/07/30 02:18:44;;;;;;;17.17;11.40;;;;;;;22.90;70.23;98640.50;3357501;29;20045;-75
2021/07/30 02:20:25;;;;;;;16.30;13.30;;;;;;;22.93;70.31;98639.09;3363773;29;20415;-76
2021/07/30 02:22:06;;;;;;;16.97;12.83;;;;;;;22.93;70.21;98645.31;3363743;29;20084;-76
2021/07/30 02:23:46;;;;;;;22.10;12.37;;;;;;;22.94;69.79;98640.69;3363930;29;20037;-77
2021/07/30 02:25:27;;;;;;;18.13;13.20;;;;;;;22.94;69.78;98641.50;3363080;29;20088;-76
2021/07/30 02:27:08;;;;;;;20.40;11.97;;;;;;;22.95;69.67;98648.56;3363222;29;20052;-77
2021/07/30 02:28:48;;;;;;;19.23;13.43;;;;;;;22.94;69.35;98640.69;3361658;29;20040;-77
2021/07/30 02:30:29;;;;;;;21.00;12.97;;;;;;;22.95;69.55;98642.28;3362698;29;20045;-76
2021/07/30 02:32:10;;;;;;;22.30;13.67;;;;;;;22.99;69.52;98646.06;3363666;29;20044;-75
2021/07/30 02:33:51;;;;;;;17.83;13.43;;;;;;;22.99;69.21;98654.22;3363177;29;20143;-76
2021/07/30 02:35:32;;;;;;;23.45;14.60;;;;;;;22.99;69.32;98649.56;3362512;29;20545;-76
2021/07/30 02:37:12;;;;;;;20.23;13.83;;;;;;;23.00;69.42;98645.78;3362626;29;20041;-75
2021/07/30 02:38:53;;;;;;;19.70;13.23;;;;;;;23.02;69.34;98646.25;3362268;29;20425;-76
2021/07/30 02:40:34;;;;;;;16.43;12.27;;;;;;;23.05;69.43;98642.13;3353207;29;20041;-77
2021/07/30 02:42:15;;;;;;;17.48;14.27;;;;;;;23.06;69.40;98650.00;3351640;29;20051;-76
2021/07/30 02:43:57;;;;;;;18.20;13.83;;;;;;;23.05;68.88;98637.50;3351931;29;20462;-76
2021/07/30 02:45:38;;;;;;;27.55;16.88;;;;;;;23.04;69.16;98633.16;3343645;29;20041;-76
2021/07/30 02:47:18;;;;;;;22.40;14.93;;;;;;;23.06;69.08;98630.16;3361447;29;20059;-77
2021/07/30 02:48:59;;;;;;;22.17;15.90;;;;;;;23.16;68.93;98656.34;3363175;29;20049;-75
2021/07/30 02:50:40;;;;;;;29.40;16.60;;;;;;;23.15;68.78;98643.84;3362723;29;20457;-76
2021/07/30 02:52:20;;;;;;;19.27;14.20;;;;;;;23.18;68.82;98651.38;3361659;29;20482;-77
2021/07/30 02:54:01;;;;;;;19.77;13.80;;;;;;;23.20;68.54;98644.53;3359807;29;20045;-77
2021/07/30 02:55:42;;;;;;;19.67;13.27;;;;;;;23.19;68.33;98634.78;3355429;29;20040;-76
2021/07/30 02:57:23;;;;;;;26.67;14.30;;;;;;;23.24;68.30;98639.31;3362321;29;20152;-75
2021/07/30 02:59:04;;;;;;;20.53;13.60;;;;;;;23.23;68.28;98634.97;3356169;29;20129;-76
2021/07/30 03:00:45;;;;;;;18.57;13.37;;;;;;;23.32;68.35;98643.22;3356238;29;20056;-78
2021/07/30 03:02:25;;;;;;;21.63;12.83;;;;;;;23.34;68.35;98633.66;3361526;29;20041;-76
2021/07/30 03:04:06;;;;;;;21.63;13.73;;;;;;;23.36;68.83;98642.28;3362944;29;20543;-77
2021/07/30 03:05:50;;;;;;;15.30;12.00;;;;;;;23.39;68.64;98639.00;3362812;29;20096;-78
2021/07/30 03:07:30;;;;;;;20.23;13.95;;;;;;;23.42;68.59;98643.81;3359930;29;20063;-78
2021/07/30 03:09:11;;;;;;;16.83;12.20;;;;;;;23.44;68.62;98641.59;3356130;29;20144;-77
2021/07/30 03:10:52;;;;;;;18.23;13.10;;;;;;;23.44;68.72;98636.16;3362443;29;20412;-76
2021/07/30 03:12:34;;;;;;;19.57;12.87;;;;;;;23.50;68.51;98642.28;3361772;29;20421;-77
2021/07/30 03:14:15;;;;;;;21.63;12.43;;;;;;;23.54;68.27;98642.47;3361611;29;20045;-76
2021/07/30 03:15:55;;;;;;;20.10;13.50;;;;;;;23.56;68.20;98638.34;3363065;29;20078;-75
2021/07/30 03:17:36;;;;;;;18.03;13.07;;;;;;;23.57;68.34;98636.41;3362953;29;20033;-77
2021/07/30 03:19:17;;;;;;;17.20;12.77;;;;;;;23.57;67.95;98641.84;3362584;29;20100;-77
2021/07/30 03:20:57;;;;;;;20.57;11.77;;;;;;;23.57;67.98;98630.97;3364069;29;20465;-76
2021/07/30 03:22:38;;;;;;;19.50;12.60;;;;;;;23.60;68.07;98642.06;3358353;29;20518;-76
2021/07/30 03:24:19;;;;;;;14.60;11.93;;;;;;;23.61;67.70;98638.22;3362485;29;20047;-76
2021/07/30 03:26:00;;;;;;;15.02;11.95;;;;;;;23.66;67.66;98640.03;3363767;29;20133;-75
2021/07/30 03:27:42;;;;;;;19.03;11.70;;;;;;;23.67;67.71;98637.00;3362898;29;20052;-77
2021/07/30 03:29:24;;;;;;;17.08;13.10;;;;;;;23.75;67.65;98651.84;3364805;29;20485;-78
2021/07/30 03:31:05;;;;;;;14.27;12.00;;;;;;;23.77;67.11;98646.88;3363425;29;20083;-76
2021/07/30 03:32:45;;;;;;;18.43;12.27;;;;;;;23.81;66.96;98642.44;3358007;29;20037;-75
2021/07/30 03:34:29;;;;;;;19.50;12.63;;;;;;;23.86;67.20;98646.97;3366634;29;20052;-76
2021/07/30 03:36:10;;;;;;;23.83;12.88;;;;;;;23.88;67.33;98639.25;3357294;29;20044;-74
2021/07/30 03:37:51;;;;;;;18.67;12.18;;;;;;;23.88;67.27;98636.53;3372782;29;20037;-76
2021/07/30 03:39:32;;;;;;;20.20;12.90;;;;;;;23.96;67.18;98641.28;3363291;29;20063;-77
2021/07/30 03:41:12;;;;;;;19.63;12.37;;;;;;;23.98;66.75;98633.59;3374098;29;20075;-77
2021/07/30 03:42:53;;;;;;;22.40;13.33;;;;;;;23.98;67.13;98635.50;3374958;29;20040;-77
2021/07/30 03:44:34;;;;;;;17.57;14.23;;;;;;;24.06;67.05;98648.38;3374582;29;20436;-76
2021/07/30 03:46:14;;;;;;;18.60;12.77;;;;;;;24.09;66.92;98636.88;3362703;29;20132;-77
2021/07/30 03:47:55;;;;;;;21.27;12.50;;;;;;;24.13;66.62;98648.75;3376783;29;20108;-76
2021/07/30 03:49:36;;;;;;;17.73;12.77;;;;;;;24.16;66.90;98646.22;3384342;29;20051;-75
2021/07/30 03:51:17;;;;;;;16.93;12.03;;;;;;;24.20;66.74;98649.13;3386811;29;20055;-76
2021/07/30 03:53:01;;;;;;;17.17;12.53;;;;;;;24.23;66.53;98653.94;3378730;29;20048;-75
2021/07/30 03:54:41;;;;;;;16.98;11.85;;;;;;;24.28;66.24;98656.53;3375174;29;20092;-76
2021/07/30 03:56:22;;;;;;;18.67;13.33;;;;;;;24.30;66.13;98654.31;3380808;29;20138;-76
2021/07/30 03:58:03;;;;;;;19.43;13.07;;;;;;;24.35;66.32;98654.19;3383236;29;20049;-76
2021/07/30 03:59:44;;;;;;;20.70;12.77;;;;;;;24.38;66.02;98652.78;3377426;29;20108;-76
2021/07/30 04:01:24;;;;;;;19.53;12.87;;;;;;;24.44;66.26;98664.34;3376307;29;20040;-78
2021/07/30 04:03:05;;;;;;;24.70;14.30;;;;;;;24.47;66.23;98666.47;3367030;29;20043;-76
2021/07/30 04:04:46;;;;;;;30.43;14.67;;;;;;;24.53;65.86;98676.13;3378320;29;20040;-77
2021/07/30 04:06:27;;;;;;;26.33;14.70;;;;;;;24.53;65.86;98660.59;3378463;29;20033;-77
2021/07/30 04:08:07;;;;;;;20.73;13.73;;;;;;;24.59;65.69;98666.69;3363299;29;20071;-77
2021/07/30 04:09:48;;;;;;;20.67;13.83;;;;;;;24.59;65.44;98677.59;3376938;29;20352;-77
2021/07/30 04:11:29;;;;;;;17.50;14.30;;;;;;;24.57;65.58;98669.72;3363793;29;20663;-77
2021/07/30 04:13:10;;;;;;;17.53;13.13;;;;;;;24.56;65.57;98659.94;3361982;29;20048;-78
2021/07/30 04:14:50;;;;;;;15.70;13.57;;;;;;;24.64;65.30;98668.50;3372163;29;20135;-77
2021/07/30 04:16:34;;;;;;;18.40;12.93;;;;;;;24.65;65.16;98670.09;3375293;29;20416;-76
2021/07/30 04:18:15;;;;;;;21.13;13.38;;;;;;;24.65;65.14;98678.25;3376223;29;20040;-76
2021/07/30 04:19:56;;;;;;;18.17;12.87;;;;;;;24.64;65.29;98669.28;3362285;29;20098;-78
2021/07/30 04:21:39;;;;;;;18.37;14.33;;;;;;;24.65;65.17;98676.34;3357977;29;20052;-77
2021/07/30 04:23:20;;;;;;;18.33;14.18;;;;;;;24.60;65.14;98668.28;3373298;29;20048;-79
2021/07/30 04:25:00;;;;;;;24.13;14.47;;;;;;;24.58;64.52;98676.00;3372473;29;20040;-79
2021/07/30 04:26:41;;;;;;;20.57;14.70;;;;;;;24.56;64.65;98684.47;3376064;29;20040;-76
2021/07/30 04:28:22;;;;;;;18.87;14.20;;;;;;;24.50;64.51;98682.19;3374172;29;20619;-78
2021/07/30 04:30:03;;;;;;;18.63;14.50;;;;;;;24.46;64.91;98678.47;3376010;29;20057;-80
2021/07/30 04:31:44;;;;;;;17.83;13.80;;;;;;;24.42;64.95;98678.28;3362403;29;20041;-79
2021/07/30 04:33:25;;;;;;;16.33;14.00;;;;;;;24.38;64.66;98680.81;3372082;29;20123;-78
2021/07/30 04:35:06;;;;;;;18.87;14.67;;;;;;;24.34;65.27;98682.56;3358275;29;20044;-78
2021/07/30 04:36:47;;;;;;;20.83;14.57;;;;;;;24.24;65.10;98666.47;3372249;29;20059;-79
2021/07/30 04:38:28;;;;;;;19.47;14.23;;;;;;;24.26;65.03;98675.09;3374715;29;20045;-76
2021/07/30 04:40:09;;;;;;;17.33;14.57;;;;;;;24.26;65.06;98666.94;3375798;29;20040;-77
2021/07/30 04:41:49;;;;;;;18.20;14.23;;;;;;;24.25;65.04;98673.50;3375675;29;20050;-76
2021/07/30 04:43:31;;;;;;;21.13;15.27;;;;;;;24.24;65.37;98660.19;3372255;29;20040;-76
2021/07/30 04:45:12;;;;;;;;;;;;;;;24.31;64.86;98674.97;3371741;29;20056;-77
2021/07/30 04:46:52;;;;;;;17.92;14.20;;;;;;;24.22;65.49;98667.88;3376017;29;20058;-76
2021/07/30 04:48:33;;;;;;;21.93;15.47;;;;;;;24.24;65.48;98671.09;3375728;29;20497;-76
2021/07/30 04:50:14;;;;;;;20.60;14.13;;;;;;;24.23;65.58;98669.50;3374555;29;20133;-76
2021/07/30 04:51:55;;;;;;;20.27;14.93;;;;;;;24.21;65.67;98668.97;3367927;29;20047;-77
2021/07/30 04:53:35;;;;;;;20.83;14.67;;;;;;;24.21;65.59;98668.97;3367425;29;20072;-79
2021/07/30 04:55:16;;;;;;;22.53;14.83;;;;;;;24.21;65.52;98667.06;3368950;29;20045;-77
2021/07/30 04:56:57;;;;;;;25.40;16.70;;;;;;;24.20;66.05;98665.47;3377542;29;20037;-78
2021/07/30 04:58:37;;;;;;;21.73;14.80;;;;;;;24.24;65.97;98671.09;3378066;29;20068;-77
2021/07/30 05:00:18;;;;;;;19.63;14.83;;;;;;;24.24;65.71;98671.91;3373963;29;20045;-77
2021/07/30 05:01:59;;;;;;;20.07;15.53;;;;;;;24.25;65.70;98672.72;3373619;29;20051;-76
2021/07/30 05:03:40;;;;;;;22.50;14.20;;;;;;;24.28;65.69;98672.09;3367742;29;20535;-74
2021/07/30 05:05:21;;;;;;;19.23;13.43;;;;;;;24.30;65.80;98675.31;3375307;29;20051;-76
2021/07/30 05:07:03;;;;;;;18.73;14.65;;;;;;;24.31;65.59;98680.44;3377595;29;20044;-77
2021/07/30 05:08:44;;;;;;;21.23;14.88;;;;;;;24.31;65.16;98676.91;3376732;29;20048;-76
2021/07/30 05:10:24;;;;;;;21.27;14.50;;;;;;;24.29;65.48;98674.50;3377968;29;20047;-77
2021/07/30 05:12:05;;;;;;;21.67;15.13;;;;;;;24.32;65.41;98670.38;3378307;29;20079;-78
2021/07/30 05:13:46;;;;;;;22.07;13.70;;;;;;;24.33;65.24;98680.94;3363986;29;20041;-76
2021/07/30 05:15:27;;;;;;;19.57;14.43;;;;;;;24.35;64.92;98683.34;3375569;29;20349;-76
2021/07/30 05:17:08;;;;;;;22.83;14.50;;;;;;;24.36;65.18;98679.50;3371542;29;20049;-73
2021/07/30 05:18:48;;;;;;;29.07;16.10;;;;;;;24.29;65.15;98677.22;3373843;29;20508;-79
2021/07/30 05:20:29;;;;;;;23.37;15.00;;;;;;;24.29;65.59;98679.97;3363216;29;20052;-77
2021/07/30 05:22:10;;;;;;;23.97;15.63;;;;;;;24.26;65.44;98675.09;3375290;29;20048;-75
2021/07/30 05:23:50;;;;;;;17.10;14.33;;;;;;;24.27;65.56;98687.63;3378082;29;20479;-77
2021/07/30 05:25:31;;;;;;;18.37;15.47;;;;;;;24.28;65.22;98686.50;3377986;29;20045;-76
2021/07/30 05:27:14;;;;;;;;;;;;;;;24.33;65.28;98689.09;3364481;29;20064;-77
2021/07/30 05:28:54;;;;;;;26.90;14.83;;;;;;;24.15;65.50;98668.31;3361370;29;19923;-80
2021/07/30 05:30:35;;;;;;;22.03;14.90;;;;;;;24.25;65.25;98687.13;3363840;29;20041;-76
2021/07/30 05:32:16;;;;;;;19.40;14.50;;;;;;;24.24;65.58;98680.09;3352897;29;20109;-77
2021/07/30 05:33:56;;;;;;;17.70;13.83;;;;;;;24.18;65.62;98678.56;3352329;29;20068;-77
2021/07/30 05:35:37;;;;;;;18.57;15.37;;;;;;;24.21;65.74;98677.94;3360646;29;20120;-75
2021/07/30 05:37:18;;;;;;;22.37;14.93;;;;;;;24.20;65.66;98681.00;3363900;29;20497;-79
2021/07/30 05:38:58;;;;;;;19.90;14.43;;;;;;;24.15;65.73;98671.81;3361330;29;20087;-75
2021/07/30 05:40:42;;;;;;;23.13;16.10;;;;;;;24.15;65.89;98682.72;3364177;29;20139;-75
2021/07/30 05:42:23;;;;;;;24.42;15.98;;;;;;;24.15;65.73;98687.38;3361926;29;20053;-77
2021/07/30 05:44:04;;;;;;;24.37;14.43;;;;;;;24.12;65.65;98682.53;3374584;29;20100;-77
2021/07/30 05:45:44;;;;;;;22.13;16.07;;;;;;;24.11;66.06;98691.81;3377804;29;20040;-79
2021/07/30 05:47:25;;;;;;;27.10;16.70;;;;;;;24.06;66.15;98698.19;3377404;29;20051;-76
2021/07/30 05:49:06;;;;;;;16.83;14.03;;;;;;;23.96;65.90;98693.00;3377217;29;20036;-78
2021/07/30 05:50:48;;;;;;;20.47;16.00;;;;;;;23.98;66.18;98700.84;3362848;29;20044;-76
2021/07/30 05:52:30;;;;;;;;;;;;;;;24.02;66.04;98699.13;3375152;29;20764;-77
2021/07/30 05:54:11;;;;;;;17.48;13.95;;;;;;;23.91;66.34;98706.72;3376679;29;20391;-78
2021/07/30 05:55:51;;;;;;;25.50;15.27;;;;;;;23.84;66.71;98707.13;3372360;29;20049;-79
2021/07/30 05:57:33;;;;;;;28.07;14.70;;;;;;;23.76;66.91;98710.56;3377810;29;20044;-78
2021/07/30 05:59:14;;;;;;;17.10;14.45;;;;;;;23.72;67.31;98718.56;3363493;29;20049;-79
2021/07/30 06:00:55;;;;;;;17.23;12.97;;;;;;;23.65;67.35;98725.50;3373279;29;20047;-77
2021/07/30 06:02:35;;;;;;;21.70;14.43;;;;;;;23.59;67.78;98732.94;3376664;29;20058;-77
2021/07/30 06:04:16;;;;;;;17.83;12.60;;;;;;;23.55;68.11;98736.59;3377024;29;20100;-77
2021/07/30 06:05:57;;;;;;;17.47;12.33;;;;;;;23.53;68.39;98731.44;3375788;29;20508;-76
2021/07/30 06:07:38;;;;;;;16.53;13.03;;;;;;;23.52;68.13;98727.13;3376913;29;20040;-77
2021/07/30 06:09:19;;;;;;;22.47;12.00;;;;;;;23.47;68.14;98721.78;3363213;29;20080;-77
2021/07/30 06:11:00;;;;;;;15.25;11.77;;;;;;;23.48;68.09;98716.00;3374003;29;20063;-76
2021/07/30 06:12:40;;;;;;;19.53;12.47;;;;;;;23.47;68.31;98730.72;3375500;29;20036;-76
2021/07/30 06:14:21;;;;;;;17.33;12.17;;;;;;;23.43;68.17;98723.47;3351454;29;20045;-74
2021/07/30 06:16:02;;;;;;;19.03;13.23;;;;;;;23.44;68.27;98722.34;3361720;29;20049;-78
2021/07/30 06:17:43;;;;;;;13.23;10.80;;;;;;;23.37;68.20;98714.63;3350920;29;20478;-75
2021/07/30 06:19:24;;;;;;;20.35;13.10;;;;;;;23.35;68.45;98716.03;3373892;29;20048;-79
2021/07/30 06:21:05;;;;;;;14.07;10.63;;;;;;;23.27;68.59;98723.78;3362721;29;20073;-76
2021/07/30 06:22:46;;;;;;;18.15;12.18;;;;;;;23.18;68.68;98722.88;3374246;29;20465;-76
2021/07/30 06:24:27;;;;;;;14.73;10.55;;;;;;;23.12;69.20;98726.78;3376349;29;20087;-75
2021/07/30 06:26:08;;;;;;;12.07;9.07;;;;;;;23.03;69.29;98726.69;3376952;29;20119;-77
2021/07/30 06:27:48;;;;;;;13.10;9.97;;;;;;;22.99;69.46;98731.09;3363158;29;20060;-78
2021/07/30 06:29:29;;;;;;;17.70;10.57;;;;;;;22.94;69.60;98722.22;3373896;29;20408;-76
2021/07/30 06:31:10;;;;;;;14.13;10.33;;;;;;;22.94;69.62;98720.31;3376655;29;20524;-76
2021/07/30 06:32:51;;;;;;;12.53;10.17;;;;;;;22.94;69.78;98712.16;3376129;29;20052;-77
2021/07/30 06:34:33;;;;;;;13.53;9.37;;;;;;;22.93;69.85;98721.41;3375628;29;20045;-75
2021/07/30 06:36:17;;;;;;;29.23;10.50;;;;;;;22.90;69.86;98711.16;3375236;29;20123;-78
2021/07/30 06:37:57;;;;;;;14.90;9.82;;;;;;;22.92;69.87;98719.78;3376846;29;20124;-77
2021/07/30 06:39:41;;;;;;;18.50;11.20;;;;;;;22.87;70.26;98717.16;3375562;29;20072;-75
2021/07/30 06:41:22;;;;;;;17.58;10.85;;;;;;;22.86;70.25;98726.44;3376414;29;20099;-80
2021/07/30 06:43:02;;;;;;;15.07;10.20;;;;;;;22.83;70.21;98727.03;3362484;29;20509;-77
2021/07/30 06:44:47;;;;;;;15.40;10.03;;;;;;;22.81;70.33;98723.81;3373545;29;20515;-78
2021/07/30 06:46:28;;;;;;;12.25;7.38;;;;;;;22.81;70.68;98729.25;3376889;29;20072;-78
2021/07/30 06:48:09;;;;;;;14.03;9.47;;;;;;;22.78;70.70;98727.94;3376003;29;20096;-77
2021/07/30 06:49:50;;;;;;;16.77;9.50;;;;;;;22.77;70.89;98722.78;3374787;29;20513;-76
2021/07/30 06:51:31;;;;;;;16.30;9.55;;;;;;;22.78;70.92;98719.78;3364434;29;20048;-77
2021/07/30 06:53:11;;;;;;;9.83;7.90;;;;;;;22.78;70.83;98710.81;3350904;29;20593;-77
2021/07/30 06:54:55;;;;;;;13.50;9.20;;;;;;;22.79;70.69;98704.28;3369224;29;20044;-78
2021/07/30 06:56:36;;;;;;;16.70;9.10;;;;;;;22.78;70.85;98700.75;3362808;29;20045;-80
2021/07/30 06:58:17;;;;;;;13.07;9.52;;;;;;;22.77;71.06;98695.59;3373553;29;20056;-79
2021/07/30 06:59:58;;;;;;;14.40;9.70;;;;;;;22.70;71.22;98689.78;3376093;29;20102;-78
2021/07/30 07:01:39;;;;;;;20.60;10.47;;;;;;;22.73;71.38;98700.84;3375442;29;20048;-77
2021/07/30 07:03:19;;;;;;;14.97;9.83;;;;;;;22.68;71.31;98700.94;3349742;29;20076;-78
2021/07/30 07:05:00;;;;;;;18.97;9.97;;;;;;;22.69;71.57;98705.28;3369818;29;20032;-78
2021/07/30 07:06:41;;;;;;;17.57;10.23;;;;;;;22.67;71.37;98691.19;3348773;29;20510;-76
2021/07/30 07:08:22;;;;;;;14.53;10.60;;;;;;;22.69;71.48;98694.41;3369459;29;20119;-78
2021/07/30 07:10:03;;;;;;;16.33;9.87;;;;;;;22.70;71.31;98692.50;3376785;29;20052;-79
2021/07/30 07:11:44;;;;;;;20.10;10.75;;;;;;;22.67;71.33;98696.63;3376810;29;20044;-77
2021/07/30 07:13:24;;;;;;;11.33;9.13;;;;;;;22.72;71.38;98703.84;3377437;29;20040;-76
2021/07/30 07:15:06;;;;;;;17.33;9.67;;;;;;;22.71;71.32;98703.06;3378411;29;20179;-79
2021/07/30 07:16:47;;;;;;;14.35;9.88;;;;;;;22.69;71.61;98707.16;3379784;29;20055;-80
2021/07/30 07:18:28;;;;;;;12.83;9.17;;;;;;;22.72;71.47;98710.13;3362874;29;20128;-77
2021/07/30 07:20:09;;;;;;;18.27;10.83;;;;;;;22.71;71.49;98707.69;3374758;29;20049;-79
2021/07/30 07:21:54;;;;;;;16.42;10.35;;;;;;;22.70;71.58;98706.09;3377797;29;20591;-78
2021/07/30 07:23:35;;;;;;;19.75;10.80;;;;;;;22.70;71.44;98703.38;3377014;29;20428;-78
2021/07/30 07:25:15;;;;;;;20.63;10.57;;;;;;;22.69;71.62;98699.03;3375273;29;20091;-77
2021/07/30 07:26:56;;;;;;;16.03;9.63;;;;;;;22.69;71.54;98705.28;3366313;29;20052;-78
2021/07/30 07:28:37;;;;;;;15.80;10.47;;;;;;;22.70;71.76;98706.09;3373759;29;20032;-78
2021/07/30 07:30:19;;;;;;;14.37;9.23;;;;;;;22.65;71.47;98702.34;3371185;29;20059;-78
2021/07/30 07:32:00;;;;;;;;;;;;;;;22.76;71.16;98699.44;3362502;29;20423;-78
2021/07/30 07:33:42;;;;;;;14.48;8.68;;;;;;;22.65;71.40;98694.19;3373443;29;19927;-79
2021/07/30 07:35:23;;;;;;;19.53;9.77;;;;;;;22.65;71.21;98694.19;3362897;29;20055;-78
2021/07/30 07:37:04;;;;;;;15.00;9.80;;;;;;;22.54;71.37;98675.66;3359605;29;20045;-77
2021/07/30 07:38:45;;;;;;;13.50;8.98;;;;;;;22.55;71.25;98678.06;3373384;29;20041;-79
2021/07/30 07:40:25;;;;;;;13.83;9.23;;;;;;;22.71;71.49;98691.38;3363908;29;20413;-80
2021/07/30 07:42:06;;;;;;;12.20;9.30;;;;;;;22.72;71.43;98693.81;3359848;29;20555;-81
2021/07/30 07:43:47;;;;;;;13.77;8.83;;;;;;;22.79;71.42;98709.72;3358852;29;20049;-78
2021/07/30 07:45:27;;;;;;;13.30;9.83;;;;;;;22.78;71.70;98692.59;3372723;29;20045;-78
2021/07/30 07:47:08;;;;;;;13.20;8.97;;;;;;;22.76;71.69;98694.00;3375617;29;20041;-81